createdAt,value
2022-11-23T00:01:18.115Z,0.80
2022-11-23T00:03:49.442Z,0.80
2022-11-23T00:06:18.090Z,0.80
2022-11-23T00:08:46.810Z,0.80
2022-11-23T00:11:15.244Z,0.80
2022-11-23T00:13:43.841Z,0.80
2022-11-23T00:16:15.761Z,0.80
2022-11-23T00:18:44.353Z,0.80
2022-11-23T00:21:15.620Z,0.80
2022-11-23T00:23:44.693Z,0.80
2022-11-23T00:26:13.886Z,0.90
2022-11-23T00:28:42.253Z,0.80
2022-11-23T00:31:11.924Z,0.80
2022-11-23T00:33:40.308Z,0.80
2022-11-23T00:36:11.820Z,0.80
2022-11-23T00:38:42.106Z,0.70
2022-11-23T00:41:12.194Z,0.80
2022-11-23T00:43:40.409Z,0.80
2022-11-23T00:46:11.349Z,0.70
2022-11-23T00:48:39.635Z,0.70
2022-11-23T00:51:09.341Z,0.80
2022-11-23T00:53:37.997Z,0.80
2022-11-23T00:56:08.156Z,0.80
2022-11-23T00:58:38.695Z,0.80
2022-11-23T01:01:09.651Z,0.70
2022-11-23T01:03:38.999Z,0.80
2022-11-23T01:06:09.016Z,0.80
2022-11-23T01:08:37.706Z,0.80
2022-11-23T01:11:09.623Z,0.80
2022-11-23T01:13:38.697Z,0.80
2022-11-23T01:16:11.241Z,0.80
2022-11-23T01:18:39.357Z,0.80
2022-11-23T01:21:07.866Z,0.80
2022-11-23T01:23:36.041Z,0.80
2022-11-23T01:26:10.047Z,0.80
2022-11-23T01:28:40.739Z,0.80
2022-11-23T01:31:12.959Z,0.70
2022-11-23T01:33:42.710Z,0.80
2022-11-23T01:36:14.478Z,0.80
2022-11-23T01:38:42.989Z,0.90
2022-11-23T01:41:15.107Z,0.90
2022-11-23T01:43:43.627Z,0.90
2022-11-23T01:46:14.227Z,1.00
2022-11-23T01:48:45.536Z,1.00
2022-11-23T01:51:16.269Z,1.00
2022-11-23T01:53:45.790Z,1.10
2022-11-23T01:56:18.324Z,1.10
2022-11-23T01:58:48.762Z,1.20
2022-11-23T02:01:17.400Z,1.20
2022-11-23T02:03:48.674Z,1.20
2022-11-23T02:06:21.296Z,1.20
2022-11-23T02:08:50.094Z,1.20
2022-11-23T02:11:19.624Z,1.20
2022-11-23T02:13:51.304Z,1.30
2022-11-23T02:16:20.240Z,1.30
2022-11-23T02:18:50.891Z,1.30
2022-11-23T02:21:21.950Z,1.30
2022-11-23T02:23:56.638Z,1.30
2022-11-23T02:26:28.538Z,1.30
2022-11-23T02:29:01.800Z,1.30
2022-11-23T02:31:32.112Z,1.30
2022-11-23T02:34:00.186Z,1.30
2022-11-23T02:36:36.561Z,1.30
2022-11-23T02:39:10.670Z,1.30
2022-11-23T02:41:43.228Z,1.30
2022-11-23T02:44:22.311Z,1.30
2022-11-23T02:46:52.011Z,1.30
2022-11-23T02:49:23.684Z,1.30
2022-11-23T02:51:52.639Z,1.40
2022-11-23T02:54:21.110Z,1.30
2022-11-23T02:56:50.784Z,1.30
2022-11-23T02:59:20.671Z,1.30
2022-11-23T03:01:53.088Z,1.30
2022-11-23T03:04:27.307Z,1.20
2022-11-23T03:06:56.343Z,1.20
2022-11-23T03:09:26.189Z,1.10
2022-11-23T03:11:59.436Z,1.10
2022-11-23T03:14:29.680Z,1.10
2022-11-23T03:17:03.505Z,1.10
2022-11-23T03:19:39.184Z,1.10
2022-11-23T03:22:10.666Z,1.10
2022-11-23T03:24:39.070Z,1.00
2022-11-23T03:27:11.277Z,1.00
2022-11-23T03:29:41.254Z,1.00
2022-11-23T03:32:15.228Z,0.90
2022-11-23T03:34:47.057Z,0.90
2022-11-23T03:37:17.407Z,0.90
2022-11-23T03:39:47.583Z,0.80
2022-11-23T03:42:26.563Z,0.80
2022-11-23T03:44:54.731Z,0.80
2022-11-23T03:47:22.909Z,0.80
2022-11-23T03:49:51.309Z,0.80
2022-11-23T03:52:19.549Z,0.80
2022-11-23T03:54:49.024Z,0.80
2022-11-23T03:57:17.571Z,0.80
2022-11-23T03:59:48.018Z,0.80
2022-11-23T04:02:16.150Z,0.70
2022-11-23T04:04:52.275Z,0.70
2022-11-23T04:07:38.957Z,0.70
2022-11-23T04:10:07.889Z,0.80
2022-11-23T04:12:58.713Z,0.70
2022-11-23T04:15:28.257Z,0.70
2022-11-23T04:17:56.883Z,0.70
2022-11-23T04:20:25.172Z,0.70
2022-11-23T04:22:53.351Z,0.70
2022-11-23T04:25:21.495Z,0.70
2022-11-23T04:27:52.079Z,0.70
2022-11-23T04:30:21.187Z,0.70
2022-11-23T04:32:50.733Z,0.70
2022-11-23T04:35:19.952Z,0.70
2022-11-23T04:37:51.059Z,0.70
2022-11-23T04:40:19.991Z,0.70
2022-11-23T04:43:17.233Z,0.70
2022-11-23T04:45:46.570Z,0.70
2022-11-23T04:48:24.591Z,0.60
2022-11-23T04:50:55.895Z,0.60
2022-11-23T04:53:31.162Z,0.60
2022-11-23T04:56:00.731Z,0.60
2022-11-23T04:58:34.580Z,0.70
2022-11-23T05:01:04.177Z,0.60
2022-11-23T05:03:37.804Z,0.60
2022-11-23T05:06:10.417Z,0.70
2022-11-23T05:08:46.756Z,0.60
2022-11-23T05:11:35.242Z,0.60
2022-11-23T05:14:04.268Z,0.60
2022-11-23T05:16:34.884Z,0.60
2022-11-23T05:19:04.541Z,0.60
2022-11-23T05:21:34.039Z,0.60
2022-11-23T05:24:02.479Z,0.70
2022-11-23T05:26:31.315Z,0.70
2022-11-23T05:28:59.484Z,0.70
2022-11-23T05:31:31.290Z,0.70
2022-11-23T05:34:04.572Z,0.70
2022-11-23T05:36:42.663Z,0.80
2022-11-23T05:39:11.565Z,0.80
2022-11-23T05:41:42.376Z,0.80
2022-11-23T05:44:24.304Z,0.80
2022-11-23T05:46:52.625Z,0.80
2022-11-23T05:49:20.807Z,0.80
2022-11-23T05:51:52.867Z,0.90
2022-11-23T05:54:21.667Z,0.90
2022-11-23T05:57:12.183Z,0.90
2022-11-23T05:59:42.202Z,0.90
2022-11-23T06:02:15.356Z,1.00
2022-11-23T06:04:44.144Z,1.00
2022-11-23T06:07:19.359Z,1.00
2022-11-23T06:10:04.708Z,1.00
2022-11-23T06:12:34.452Z,1.10
2022-11-23T06:15:05.562Z,1.00
2022-11-23T06:17:36.909Z,1.00
2022-11-23T06:20:10.165Z,1.00
2022-11-23T06:22:44.957Z,0.90
2022-11-23T06:25:16.986Z,0.90
2022-11-23T06:27:57.812Z,0.90
2022-11-23T06:30:33.724Z,0.80
2022-11-23T06:33:06.845Z,0.80
2022-11-23T06:35:41.502Z,0.80
2022-11-23T06:38:12.129Z,0.80
2022-11-23T06:40:40.649Z,0.70
2022-11-23T06:43:09.027Z,0.70
2022-11-23T06:45:45.130Z,0.70
2022-11-23T06:48:16.225Z,0.70
2022-11-23T06:50:47.995Z,0.70
2022-11-23T06:53:19.102Z,0.80
2022-11-23T06:55:52.137Z,0.80
2022-11-23T06:58:22.852Z,0.70
2022-11-23T07:00:52.251Z,0.70
2022-11-23T07:03:23.146Z,0.70
2022-11-23T07:05:57.357Z,0.70
2022-11-23T07:08:30.508Z,0.70
2022-11-23T07:11:03.400Z,0.70
2022-11-23T07:13:32.740Z,0.70
2022-11-23T07:16:01.158Z,0.70
2022-11-23T07:18:29.622Z,0.70
2022-11-23T07:21:01.221Z,0.70
2022-11-23T07:23:30.974Z,0.70
2022-11-23T07:25:59.191Z,0.70
2022-11-23T07:28:32.628Z,0.70
2022-11-23T07:31:03.430Z,0.80
2022-11-23T07:33:31.616Z,0.80
2022-11-23T07:36:02.845Z,0.80
2022-11-23T07:38:36.171Z,0.80
2022-11-23T07:41:07.888Z,0.80
2022-11-23T07:43:55.710Z,0.80
2022-11-23T07:46:23.845Z,0.80
2022-11-23T07:48:59.342Z,0.80
2022-11-23T07:51:27.242Z,0.90
2022-11-23T07:53:56.768Z,0.90
2022-11-23T07:56:25.457Z,0.90
2022-11-23T07:58:53.699Z,1.00
2022-11-23T08:01:21.906Z,1.00
2022-11-23T08:03:50.588Z,1.00
2022-11-23T08:06:19.260Z,1.10
2022-11-23T08:08:47.457Z,1.10
2022-11-23T08:11:18.731Z,1.20
2022-11-23T08:13:46.842Z,1.10
2022-11-23T08:16:14.979Z,1.10
2022-11-23T08:18:43.273Z,1.20
2022-11-23T08:21:11.366Z,1.20
2022-11-23T08:23:39.499Z,1.30
2022-11-23T08:26:18.507Z,1.30
2022-11-23T08:28:46.710Z,1.40
2022-11-23T08:31:17.186Z,1.60
2022-11-23T08:33:45.325Z,1.70
2022-11-23T08:36:15.580Z,1.70
2022-11-23T08:38:43.846Z,1.70
2022-11-23T08:41:11.954Z,1.80
2022-11-23T08:43:41.528Z,1.80
2022-11-23T08:46:11.356Z,2.00
2022-11-23T08:48:39.756Z,2.00
2022-11-23T08:51:08.607Z,2.20
2022-11-23T08:53:36.987Z,2.40
2022-11-23T08:56:08.805Z,2.30
2022-11-23T08:58:37.756Z,2.50
2022-11-23T09:01:11.014Z,2.40
2022-11-23T09:03:39.998Z,2.60
2022-11-23T09:06:08.878Z,2.60
2022-11-23T09:08:37.620Z,2.60
2022-11-23T09:11:08.358Z,2.70
2022-11-23T09:13:38.171Z,2.80
2022-11-23T09:16:10.560Z,2.90
2022-11-23T09:18:40.083Z,3.00
2022-11-23T09:21:08.327Z,2.90
2022-11-23T09:23:36.523Z,2.70
2022-11-23T09:26:05.999Z,2.90
2022-11-23T09:28:34.395Z,2.90
2022-11-23T09:31:05.354Z,2.90
2022-11-23T09:33:33.794Z,3.00
2022-11-23T09:36:05.347Z,3.00
2022-11-23T09:38:55.178Z,2.90
2022-11-23T09:41:51.839Z,3.00
2022-11-23T09:44:27.789Z,3.10
2022-11-23T09:47:20.903Z,3.20
2022-11-23T09:50:00.024Z,3.20
2022-11-23T09:52:30.906Z,3.20
2022-11-23T09:55:06.658Z,3.30
2022-11-23T09:57:37.204Z,3.40
2022-11-23T10:00:16.138Z,3.40
2022-11-23T10:02:44.426Z,3.50
2022-11-23T10:05:19.135Z,3.50
2022-11-23T10:08:05.574Z,3.70
2022-11-23T10:10:41.841Z,3.70
2022-11-23T10:13:30.437Z,3.90
2022-11-23T10:16:14.280Z,4.00
2022-11-23T10:18:54.818Z,4.10
2022-11-23T10:21:38.568Z,4.20
2022-11-23T10:24:19.256Z,4.20
2022-11-23T10:26:49.673Z,4.30
2022-11-23T10:29:26.520Z,4.40
2022-11-23T10:31:57.493Z,4.40
2022-11-23T10:34:47.634Z,4.50
2022-11-23T10:37:17.627Z,4.50
2022-11-23T10:39:49.734Z,4.50
2022-11-23T10:42:25.572Z,4.70
2022-11-23T10:44:56.544Z,4.70
2022-11-23T10:47:39.992Z,4.60
2022-11-23T10:50:26.359Z,4.70
2022-11-23T10:52:58.020Z,4.80
2022-11-23T10:55:30.302Z,4.80
2022-11-23T10:57:59.075Z,4.80
2022-11-23T11:00:30.818Z,4.80
2022-11-23T11:03:03.341Z,4.60
2022-11-23T11:06:07.579Z,4.70
2022-11-23T11:08:30.231Z,4.80
2022-11-23T11:11:03.053Z,4.90
2022-11-23T11:13:33.079Z,5.10
2022-11-23T11:16:03.125Z,5.20
2022-11-23T11:18:33.768Z,5.10
2022-11-23T11:21:07.445Z,5.20
2022-11-23T11:23:41.568Z,5.40
2022-11-23T11:26:21.415Z,5.40
2022-11-23T11:28:51.522Z,5.40
2022-11-23T11:31:54.622Z,5.40
2022-11-23T11:34:27.768Z,5.60
2022-11-23T11:37:03.341Z,5.60
2022-11-23T11:39:36.711Z,5.70
2022-11-23T11:42:14.544Z,5.70
2022-11-23T11:44:45.580Z,5.70
2022-11-23T11:47:25.369Z,5.80
2022-11-23T11:49:57.890Z,5.90
2022-11-23T11:52:29.485Z,5.90
2022-11-23T11:55:03.069Z,5.90
2022-11-23T11:57:37.220Z,5.90
2022-11-23T12:00:14.959Z,5.70
2022-11-23T12:02:53.055Z,5.80
2022-11-23T12:05:25.339Z,5.90
2022-11-23T12:08:02.711Z,6.10
2022-11-23T12:10:37.748Z,6.10
2022-11-23T12:13:10.186Z,6.10
2022-11-23T12:15:49.387Z,6.20
2022-11-23T12:18:38.438Z,6.00
2022-11-23T12:21:14.328Z,6.00
2022-11-23T12:23:53.546Z,6.10
2022-11-23T12:26:30.544Z,6.10
2022-11-23T12:29:27.110Z,6.20
2022-11-23T12:32:06.925Z,6.20
2022-11-23T12:34:52.122Z,6.20
2022-11-23T12:37:32.495Z,6.20
2022-11-23T12:40:27.825Z,6.20
2022-11-23T12:43:02.792Z,6.10
2022-11-23T12:45:46.501Z,6.10
2022-11-23T12:48:31.300Z,6.00
2022-11-23T12:51:11.256Z,5.90
2022-11-23T12:53:50.691Z,6.00
2022-11-23T12:56:31.898Z,6.10
2022-11-23T12:59:01.271Z,6.10
2022-11-23T13:01:34.953Z,6.10
2022-11-23T13:04:35.731Z,6.10
2022-11-23T13:07:39.823Z,6.20
2022-11-23T13:10:40.912Z,6.30
2022-11-23T13:13:19.894Z,6.30
2022-11-23T13:16:20.361Z,6.30
2022-11-23T13:19:05.159Z,6.30
2022-11-23T13:21:41.007Z,6.40
2022-11-23T13:24:29.209Z,6.40
2022-11-23T13:27:32.612Z,6.40
2022-11-23T13:30:11.273Z,6.40
2022-11-23T13:32:55.174Z,6.40
2022-11-23T13:35:56.858Z,6.40
2022-11-23T13:38:44.581Z,6.40
2022-11-23T13:41:46.537Z,6.40
2022-11-23T13:44:21.601Z,6.40
2022-11-23T13:47:01.596Z,6.30
2022-11-23T13:49:32.453Z,6.30
2022-11-23T13:52:30.239Z,6.30
2022-11-23T13:55:09.021Z,6.30
2022-11-23T13:57:39.016Z,6.20
2022-11-23T14:00:45.592Z,6.30
2022-11-23T14:03:57.043Z,6.20
2022-11-23T14:06:42.918Z,6.20
2022-11-23T14:09:19.132Z,6.20
2022-11-23T14:11:58.904Z,6.20
2022-11-23T14:14:34.962Z,6.30
2022-11-23T14:17:24.862Z,6.30
2022-11-23T14:20:20.151Z,6.30
2022-11-23T14:23:07.782Z,6.30
2022-11-23T14:25:50.177Z,6.10
2022-11-23T14:28:32.604Z,6.10
2022-11-23T14:31:13.514Z,6.10
2022-11-23T14:33:50.763Z,6.10
2022-11-23T14:36:32.892Z,6.00
2022-11-23T14:39:40.650Z,5.90
2022-11-23T14:42:14.143Z,5.80
2022-11-23T14:44:46.217Z,5.70
2022-11-23T14:47:14.842Z,5.60
2022-11-23T14:49:52.578Z,5.50
2022-11-23T14:52:22.952Z,5.40
2022-11-23T14:54:53.066Z,5.40
2022-11-23T14:57:23.587Z,5.40
2022-11-23T14:59:56.806Z,5.30
2022-11-23T15:02:28.840Z,5.20
2022-11-23T15:05:04.236Z,5.20
2022-11-23T15:07:45.956Z,5.10
2022-11-23T15:10:34.728Z,5.00
2022-11-23T15:13:03.221Z,5.00
2022-11-23T15:15:37.913Z,5.00
2022-11-23T15:18:06.282Z,5.00
2022-11-23T15:20:37.129Z,4.90
2022-11-23T15:23:06.155Z,4.90
2022-11-23T15:25:34.282Z,4.90
2022-11-23T15:28:02.548Z,4.80
2022-11-23T15:30:33.178Z,4.80
2022-11-23T15:33:07.634Z,4.80
2022-11-23T15:35:38.136Z,4.70
2022-11-23T15:38:14.946Z,4.70
2022-11-23T15:40:47.159Z,4.60
2022-11-23T15:43:16.744Z,4.50
2022-11-23T15:46:03.897Z,4.60
2022-11-23T15:48:35.549Z,4.50
2022-11-23T15:51:05.809Z,4.50
2022-11-23T15:53:43.005Z,4.50
2022-11-23T15:56:19.147Z,4.60
2022-11-23T15:58:51.047Z,4.60
2022-11-23T16:01:22.087Z,4.60
2022-11-23T16:03:52.608Z,4.60
2022-11-23T16:06:35.316Z,4.60
2022-11-23T16:09:10.102Z,4.60
2022-11-23T16:11:46.464Z,4.50
2022-11-23T16:14:18.143Z,4.60
2022-11-23T16:16:49.526Z,4.50
2022-11-23T16:19:28.315Z,4.40
2022-11-23T16:22:02.477Z,4.40
2022-11-23T16:24:33.823Z,4.40
2022-11-23T16:27:03.263Z,4.30
2022-11-23T16:29:36.800Z,4.30
2022-11-23T16:32:08.519Z,4.30
2022-11-23T16:34:36.805Z,4.30
2022-11-23T16:37:05.124Z,4.20
2022-11-23T16:39:33.304Z,4.10
2022-11-23T16:42:01.653Z,4.10
2022-11-23T16:44:35.158Z,4.00
2022-11-23T16:47:20.943Z,4.00
2022-11-23T16:49:49.313Z,3.90
2022-11-23T16:52:18.034Z,3.80
2022-11-23T16:54:49.246Z,3.80
2022-11-23T16:57:38.192Z,3.70
2022-11-23T17:00:09.504Z,3.70
2022-11-23T17:02:39.288Z,3.60
2022-11-23T17:05:14.120Z,3.60
2022-11-23T17:07:42.507Z,3.60
2022-11-23T17:10:11.678Z,3.50
2022-11-23T17:12:41.290Z,3.50
2022-11-23T17:15:13.621Z,3.50
2022-11-23T17:17:43.884Z,3.30
2022-11-23T17:20:17.666Z,3.40
2022-11-23T17:22:51.651Z,3.40
2022-11-23T17:25:20.544Z,3.30
2022-11-23T17:27:50.541Z,3.30
2022-11-23T17:30:23.156Z,3.40
2022-11-23T17:32:53.298Z,3.40
2022-11-23T17:35:22.103Z,3.30
2022-11-23T17:37:50.383Z,3.40
2022-11-23T17:40:20.377Z,3.30
2022-11-23T17:42:48.977Z,3.30
2022-11-23T17:45:17.372Z,3.20
2022-11-23T17:47:46.183Z,3.20
2022-11-23T17:50:19.474Z,3.20
2022-11-23T17:52:48.428Z,3.10
2022-11-23T17:55:18.047Z,3.10
2022-11-23T17:57:46.326Z,3.00
2022-11-23T18:00:18.805Z,3.10
2022-11-23T18:02:47.872Z,2.90
2022-11-23T18:05:21.924Z,3.00
2022-11-23T18:07:51.045Z,2.90
2022-11-23T18:10:20.091Z,2.90
2022-11-23T18:12:49.124Z,2.90
2022-11-23T18:15:20.892Z,2.90
2022-11-23T18:17:49.435Z,2.80
2022-11-23T18:20:19.121Z,2.80
2022-11-23T18:22:47.430Z,2.80
2022-11-23T18:25:18.038Z,2.80
2022-11-23T18:27:46.281Z,2.70
2022-11-23T18:30:18.290Z,2.70
2022-11-23T18:32:46.964Z,2.70
2022-11-23T18:35:15.414Z,2.70
2022-11-23T18:37:45.229Z,2.70
2022-11-23T18:40:14.516Z,2.60
2022-11-23T18:42:42.630Z,2.60
2022-11-23T18:45:11.542Z,2.60
2022-11-23T18:47:39.896Z,2.50
2022-11-23T18:50:09.029Z,2.60
2022-11-23T18:52:37.397Z,2.50
2022-11-23T18:55:08.370Z,2.50
2022-11-23T18:57:36.632Z,2.50
2022-11-23T19:00:06.626Z,2.60
2022-11-23T19:02:35.536Z,2.50
2022-11-23T19:05:07.172Z,2.50
2022-11-23T19:07:35.457Z,2.50
2022-11-23T19:10:03.911Z,2.50
2022-11-23T19:12:33.447Z,2.50
2022-11-23T19:15:02.592Z,2.50
2022-11-23T19:17:31.956Z,2.50
2022-11-23T19:20:00.418Z,2.40
2022-11-23T19:22:28.696Z,2.50
2022-11-23T19:24:56.852Z,2.40
2022-11-23T19:27:25.099Z,2.50
2022-11-23T19:29:54.824Z,2.40
2022-11-23T19:32:23.146Z,2.40
2022-11-23T19:34:51.259Z,2.40
2022-11-23T19:37:19.426Z,2.50
2022-11-23T19:39:47.916Z,2.40
2022-11-23T19:42:16.274Z,2.40
2022-11-23T19:44:44.910Z,2.30
2022-11-23T19:47:18.724Z,2.30
2022-11-23T19:49:50.483Z,2.20
2022-11-23T19:52:18.732Z,2.20
2022-11-23T19:54:47.057Z,2.20
2022-11-23T19:57:15.234Z,2.20
2022-11-23T19:59:43.463Z,2.20
2022-11-23T20:02:23.076Z,2.20
2022-11-23T20:04:51.746Z,2.20
2022-11-23T20:07:20.732Z,2.10
2022-11-23T20:09:51.905Z,2.10
2022-11-23T20:12:20.829Z,2.10
2022-11-23T20:14:49.411Z,2.10
2022-11-23T20:17:17.597Z,2.10
2022-11-23T20:19:47.155Z,2.10
2022-11-23T20:22:15.837Z,2.10
2022-11-23T20:24:44.088Z,2.10
2022-11-23T20:27:13.680Z,2.10
2022-11-23T20:29:42.586Z,2.00
2022-11-23T20:32:12.722Z,2.10
2022-11-23T20:34:40.933Z,2.00
2022-11-23T20:37:10.537Z,1.90
2022-11-23T20:39:38.750Z,2.00
2022-11-23T20:42:06.976Z,2.00
2022-11-23T20:44:37.305Z,1.90
2022-11-23T20:47:06.152Z,1.80
2022-11-23T20:49:34.844Z,1.90
2022-11-23T20:52:03.062Z,1.90
2022-11-23T20:54:33.036Z,1.90
2022-11-23T20:57:01.525Z,1.90
2022-11-23T20:59:30.151Z,1.90
2022-11-23T21:01:58.596Z,1.90
2022-11-23T21:04:27.169Z,1.90
2022-11-23T21:06:55.743Z,1.80
2022-11-23T21:09:24.087Z,1.80
2022-11-23T21:12:11.288Z,1.80
2022-11-23T21:14:40.091Z,1.80
2022-11-23T21:17:08.403Z,1.80
2022-11-23T21:19:38.030Z,1.70
2022-11-23T21:22:10.834Z,1.80
2022-11-23T21:24:39.295Z,1.70
2022-11-23T21:27:12.991Z,1.70
2022-11-23T21:29:41.232Z,1.70
2022-11-23T21:32:09.859Z,1.60
2022-11-23T21:34:38.311Z,1.60
2022-11-23T21:37:06.710Z,1.60
2022-11-23T21:39:34.991Z,1.50
2022-11-23T21:42:03.393Z,1.50
2022-11-23T21:44:33.245Z,1.50
2022-11-23T21:47:01.664Z,1.60
2022-11-23T21:49:29.951Z,1.60
2022-11-23T21:51:58.538Z,1.60
2022-11-23T21:54:27.081Z,1.60
2022-11-23T21:56:55.515Z,1.60
2022-11-23T21:59:24.653Z,1.50
2022-11-23T22:01:57.205Z,1.60
2022-11-23T22:04:26.201Z,1.60
2022-11-23T22:06:54.713Z,1.50
2022-11-23T22:09:23.355Z,1.50
2022-11-23T22:11:51.819Z,1.60
2022-11-23T22:14:22.062Z,1.60
2022-11-23T22:16:50.881Z,1.50
2022-11-23T22:19:20.874Z,1.50
2022-11-23T22:21:49.240Z,1.50
2022-11-23T22:24:22.209Z,1.60
2022-11-23T22:26:50.630Z,1.50
2022-11-23T22:29:18.878Z,1.50
2022-11-23T22:31:47.252Z,1.50
2022-11-23T22:34:18.325Z,1.40
2022-11-23T22:36:50.687Z,1.40
2022-11-23T22:39:18.959Z,1.40
2022-11-23T22:41:47.295Z,1.40
2022-11-23T22:44:15.625Z,1.30
2022-11-23T22:46:45.724Z,1.40
2022-11-23T22:49:13.935Z,1.40
2022-11-23T22:51:42.448Z,1.30
2022-11-23T22:54:13.148Z,1.40
2022-11-23T22:56:41.438Z,1.40
2022-11-23T22:59:10.040Z,1.30
2022-11-23T23:01:39.540Z,1.40
2022-11-23T23:04:07.867Z,1.40
2022-11-23T23:06:36.071Z,1.40
2022-11-23T23:09:09.664Z,1.30
2022-11-23T23:11:41.289Z,1.40
2022-11-23T23:14:12.017Z,1.40
2022-11-23T23:16:40.336Z,1.40
2022-11-23T23:19:09.398Z,1.40
2022-11-23T23:21:37.675Z,1.40
2022-11-23T23:24:10.901Z,1.40
2022-11-23T23:26:43.060Z,1.40
2022-11-23T23:29:21.168Z,1.40
2022-11-23T23:31:55.227Z,1.30
2022-11-23T23:34:26.349Z,1.40
2022-11-23T23:36:54.566Z,1.40
2022-11-23T23:39:22.810Z,1.40
2022-11-23T23:41:52.519Z,1.40
2022-11-23T23:44:20.985Z,1.40
2022-11-23T23:46:51.264Z,1.50
2022-11-23T23:49:25.051Z,1.40
2022-11-23T23:51:53.564Z,1.50
2022-11-23T23:54:21.907Z,1.50
2022-11-23T23:56:54.643Z,1.50
2022-11-23T23:59:26.469Z,1.40
